Lakki Marwat Weather



Lakki Marwat's Current Weather

Temprature 39.41o clear sky

clear sky

Rain: 0 %

Min Temprature39.41o
Max Temprature39.41o
Humidity23
Wind Speed4.83 m/h
Sun Rise05:14:03
Sun Set19:27:31
Current Time: 05-Jul-2020 18:05:38
Lat/Lon: 32.61, 70.91




Lakki Marwat's Geo Location



Lakki Marwat's Weather Forecast

Time Overall Temp Min Temp Max Temp Humidity Wind Speed Rain
05-Jul-2020 (Sun)
20:00:00 clear sky 39.060 38.350 39.060 24 3.41 m/h 0 %
23:00:00 light rain 36.030 35.010 36.030 38 7 m/h 19 %
06-Jul-2020 (Mon)
02:00:00 clear sky 33.620 33.200 33.620 48 2.88 m/h 0 %
05:00:00 scattered clouds 32.850 32.790 32.850 50 0.9 m/h 0 %
08:00:00 light rain 34.730 34.730 34.730 40 3.11 m/h 41 %
11:00:00 light rain 37.710 37.710 37.710 30 2.75 m/h 14 %
14:00:00 clear sky 40.350 40.350 40.350 22 1.78 m/h 0 %
17:00:00 clear sky 41.550 41.550 41.550 18 1.3 m/h 0 %
20:00:00 clear sky 38.580 38.580 38.580 24 3.86 m/h 0 %
23:00:00 scattered clouds 37.900 37.900 37.900 26 2.97 m/h 0 %
07-Jul-2020 (Tue)
02:00:00 few clouds 35.070 35.070 35.070 30 6.05 m/h 0 %
05:00:00 few clouds 34.270 34.270 34.270 30 2.41 m/h 0 %
08:00:00 few clouds 37.060 37.060 37.060 25 2.83 m/h 0 %
11:00:00 clear sky 41.050 41.050 41.050 19 1.12 m/h 0 %
14:00:00 clear sky 43.720 43.720 43.720 14 0.61 m/h 0 %
17:00:00 clear sky 44.380 44.380 44.380 13 1.2 m/h 0 %
20:00:00 clear sky 42.370 42.370 42.370 16 2.57 m/h 0 %
23:00:00 clear sky 40.360 40.360 40.360 18 2.1 m/h 0 %
08-Jul-2020 (Wed)
02:00:00 clear sky 38.320 38.320 38.320 21 0.16 m/h 0 %
05:00:00 clear sky 36.220 36.220 36.220 25 1.71 m/h 0 %
08:00:00 clear sky 39.330 39.330 39.330 21 1.95 m/h 0 %
11:00:00 clear sky 43.200 43.200 43.200 18 3.85 m/h 0 %
14:00:00 clear sky 45.240 45.240 45.240 14 1.88 m/h 0 %
17:00:00 clear sky 45.880 45.880 45.880 12 1.96 m/h 0 %
20:00:00 few clouds 43.660 43.660 43.660 14 2.01 m/h 0 %
23:00:00 clear sky 40.880 40.880 40.880 20 5.3 m/h 0 %
09-Jul-2020 (Thu)
02:00:00 clear sky 38.390 38.390 38.390 29 2.47 m/h 0 %
05:00:00 clear sky 36.550 36.550 36.550 33 1.26 m/h 0 %
08:00:00 clear sky 39.370 39.370 39.370 28 3.01 m/h 0 %
11:00:00 clear sky 43.190 43.190 43.190 22 4.4 m/h 0 %
14:00:00 clear sky 46.030 46.030 46.030 15 2.45 m/h 0 %
17:00:00 few clouds 44.280 44.280 44.280 15 4.34 m/h 0 %
20:00:00 clear sky 42.210 42.210 42.210 19 9.63 m/h 0 %
23:00:00 clear sky 39.600 39.600 39.600 27 5.97 m/h 0 %
10-Jul-2020 (Fri)
02:00:00 clear sky 35.790 35.790 35.790 33 10.35 m/h 0 %
05:00:00 light rain 32.530 32.530 32.530 43 6.51 m/h 19 %
08:00:00 light rain 33.830 33.830 33.830 40 3.19 m/h 86 %
11:00:00 clear sky 37.750 37.750 37.750 34 2.92 m/h 0 %
14:00:00 clear sky 40.740 40.740 40.740 28 2.66 m/h 0 %
17:00:00 clear sky 42.520 42.520 42.520 22 1.9 m/h 0 %

Famous Cities (60)